Time;durP1;ratioP1;P1;durP2;ratioP2;P2;SDS_P1;SDS_P2;PMS_P1;PMS_P2;Temp;Humidity;BMP_temperature;BMP_pressure;BME280_temperature;BME280_humidity;BME280_pressure;Samples;Min_cycle;Max_cycle;Signal;HPM_P1;HPM_P2
2023/03/26 00:00:43;;;;;;;8.07;6.10;;;11.40;72.00;;;;;;5070939;28;20043;-51
2023/03/26 00:03:10;;;;;;;8.05;5.72;;;11.40;72.10;;;;;;5072505;28;20035;-55
2023/03/26 00:05:37;;;;;;;7.95;6.00;;;11.30;72.80;;;;;;5072983;28;21099;-59
2023/03/26 00:08:04;;;;;;;7.38;6.18;;;11.40;72.20;;;;;;5075749;28;20119;-60
2023/03/26 00:10:29;;;;;;;8.88;6.57;;;11.40;72.30;;;;;;5075391;28;20490;-60
2023/03/26 00:12:55;;;;;;;8.70;6.53;;;11.40;72.40;;;;;;5076197;28;20056;-60
2023/03/26 00:15:20;;;;;;;7.68;6.40;;;11.40;72.50;;;;;;5072827;28;20035;-60
2023/03/26 00:17:46;;;;;;;8.60;5.80;;;11.30;72.50;;;;;;5075768;28;20099;-60
2023/03/26 00:20:13;;;;;;;8.35;6.68;;;11.40;72.60;;;;;;5075351;28;20029;-59
2023/03/26 00:22:40;;;;;;;9.68;6.85;;;11.40;72.60;;;;;;5075591;28;20032;-60
2023/03/26 00:25:06;;;;;;;9.70;6.82;;;11.40;72.80;;;;;;5078260;28;20040;-60
2023/03/26 00:27:33;;;;;;;9.60;7.20;;;11.40;72.70;;;;;;5075367;28;20033;-65
2023/03/26 00:29:59;;;;;;;9.63;7.38;;;11.40;72.80;;;;;;5075511;28;20037;-65
2023/03/26 00:32:27;;;;;;;9.45;6.68;;;11.40;72.90;;;;;;5073704;28;20103;-65
2023/03/26 00:34:54;;;;;;;10.43;7.35;;;11.40;73.00;;;;;;5063347;28;20032;-66
2023/03/26 00:37:25;;;;;;;10.60;7.38;;;11.40;73.10;;;;;;5075051;28;20043;-67
2023/03/26 00:39:52;;;;;;;11.13;8.70;;;11.40;73.20;;;;;;5074954;28;20074;-65
2023/03/26 00:42:18;;;;;;;10.55;7.32;;;11.40;73.30;;;;;;5075080;28;20107;-66
2023/03/26 00:44:43;;;;;;;10.63;8.15;;;11.30;73.40;;;;;;5075396;28;20108;-66
2023/03/26 00:47:09;;;;;;;10.20;7.43;;;11.40;73.50;;;;;;5074948;28;20040;-65
2023/03/26 00:49:35;;;;;;;10.02;8.07;;;11.30;73.50;;;;;;5074846;28;20025;-65
2023/03/26 00:52:02;;;;;;;10.27;7.15;;;11.30;73.70;;;;;;5075030;28;20066;-64
2023/03/26 00:54:28;;;;;;;11.30;8.05;;;11.30;73.80;;;;;;5074724;28;20580;-63
2023/03/26 00:56:54;;;;;;;10.90;7.53;;;11.40;73.90;;;;;;5076137;28;20031;-65
2023/03/26 00:59:21;;;;;;;9.77;7.07;;;11.30;73.90;;;;;;5074700;28;20033;-65
2023/03/26 01:01:47;;;;;;;10.75;7.70;;;11.30;74.00;;;;;;5064617;28;20028;-64
2023/03/26 01:04:29;;;;;;;9.30;7.00;;;11.30;74.20;;;;;;5072814;28;20067;-65
2023/03/26 01:06:57;;;;;;;9.50;7.45;;;11.30;74.40;;;;;;5073896;28;20391;-65
2023/03/26 01:09:31;;;;;;;10.15;7.50;;;11.40;74.60;;;;;;5074203;28;20041;-66
2023/03/26 01:12:00;;;;;;;9.48;6.97;;;11.40;74.70;;;;;;5074203;28;20107;-65
2023/03/26 01:14:27;;;;;;;11.55;7.72;;;11.40;74.70;;;;;;5074939;28;20027;-65
2023/03/26 01:16:59;;;;;;;11.10;7.53;;;11.40;74.80;;;;;;5074220;28;20123;-66
2023/03/26 01:19:43;;;;;;;12.07;7.93;;;11.40;75.00;;;;;;5074241;28;20108;-65
2023/03/26 01:22:12;;;;;;;8.68;7.15;;;11.40;75.00;;;;;;5073378;28;20128;-65
2023/03/26 01:24:41;;;;;;;9.18;6.85;;;11.40;75.20;;;;;;5078035;28;20426;-65
2023/03/26 01:27:16;;;;;;;10.38;7.60;;;11.40;75.30;;;;;;5074011;28;20048;-63
2023/03/26 01:29:52;;;;;;;11.07;7.30;;;11.40;75.60;;;;;;5073995;28;20033;-66
2023/03/26 01:32:46;;;;;;;10.25;6.82;;;11.30;75.80;;;;;;5074052;28;20044;-65
2023/03/26 01:35:46;;;;;;;10.50;7.18;;;11.30;75.80;;;;;;5075439;28;20036;-64
2023/03/26 01:38:49;;;;;;;9.98;7.07;;;11.30;76.10;;;;;;5046444;28;20074;-64
2023/03/26 01:41:15;;;;;;;8.73;6.25;;;11.30;76.40;;;;;;5073985;28;20035;-65
2023/03/26 01:43:50;;;;;;;10.40;7.05;;;11.30;76.70;;;;;;5075129;28;20032;-65
2023/03/26 01:46:18;;;;;;;8.90;6.78;;;11.20;76.80;;;;;;5073811;28;20039;-59
2023/03/26 01:48:45;;;;;;;10.35;7.45;;;11.20;76.90;;;;;;5074123;28;20035;-59
2023/03/26 01:51:13;;;;;;;10.20;7.18;;;11.20;77.20;;;;;;5074389;28;20429;-59
2023/03/26 01:53:45;;;;;;;10.65;7.28;;;11.20;77.40;;;;;;5074169;28;20025;-60
2023/03/26 01:56:22;;;;;;;10.00;6.90;;;11.20;77.60;;;;;;5074104;28;20036;-63
2023/03/26 01:59:03;;;;;;;8.88;6.47;;;11.20;77.60;;;;;;5073544;28;20035;-65
2023/03/26 02:01:35;;;;;;;9.67;6.53;;;11.20;77.70;;;;;;5071828;28;20031;-65
2023/03/26 02:04:10;;;;;;;9.30;6.68;;;11.20;77.90;;;;;;5075526;28;20111;-65
2023/03/26 02:07:04;;;;;;;7.80;6.40;;;11.10;78.00;;;;;;5073501;28;20032;-61
2023/03/26 02:09:34;;;;;;;7.88;6.00;;;11.10;78.20;;;;;;5056469;28;20037;-61
2023/03/26 02:12:02;;;;;;;6.82;5.40;;;11.10;78.50;;;;;;5073251;28;20039;-61
2023/03/26 02:14:31;;;;;;;8.70;5.57;;;11.10;78.70;;;;;;5073680;28;20173;-61
2023/03/26 02:16:57;;;;;;;7.93;5.80;;;11.10;78.80;;;;;;5072443;28;20044;-62
2023/03/26 02:19:23;;;;;;;9.02;5.78;;;11.00;78.90;;;;;;5073142;28;20048;-65
2023/03/26 02:21:51;;;;;;;7.88;6.10;;;11.00;79.20;;;;;;5073301;28;20040;-65
2023/03/26 02:24:18;;;;;;;8.18;5.95;;;11.10;79.30;;;;;;5078289;28;20442;-63
2023/03/26 02:26:44;;;;;;;7.63;6.05;;;11.10;79.50;;;;;;5073195;28;20036;-54
2023/03/26 02:29:12;;;;;;;7.05;4.93;;;11.10;79.50;;;;;;5072163;28;20032;-56
2023/03/26 02:31:38;;;;;;;6.55;4.80;;;11.10;79.70;;;;;;5073290;28;20368;-53
2023/03/26 02:34:04;;;;;;;6.78;5.03;;;11.10;79.90;;;;;;5070671;28;20028;-54
2023/03/26 02:36:30;;;;;;;7.03;5.22;;;11.10;79.90;;;;;;5072757;28;20071;-53
2023/03/26 02:38:59;;;;;;;6.22;5.00;;;11.10;80.30;;;;;;5072884;28;20427;-54
2023/03/26 02:41:24;;;;;;;6.00;5.15;;;11.10;80.20;;;;;;5073016;28;20041;-53
2023/03/26 02:43:50;;;;;;;6.72;5.35;;;11.20;80.30;;;;;;5072827;28;20086;-52
2023/03/26 02:46:16;;;;;;;6.72;5.03;;;11.20;80.40;;;;;;5076748;28;20063;-56
2023/03/26 02:48:42;;;;;;;8.18;5.18;;;11.20;80.30;;;;;;5076268;28;20119;-53
2023/03/26 02:51:08;;;;;;;7.40;5.25;;;11.20;80.20;;;;;;5072677;28;20055;-57
2023/03/26 02:53:36;;;;;;;7.50;5.25;;;11.20;80.20;;;;;;5072565;28;20028;-55
2023/03/26 02:56:02;;;;;;;6.63;4.97;;;11.20;80.20;;;;;;5074969;28;20033;-56
2023/03/26 02:58:28;;;;;;;7.35;4.93;;;11.20;80.30;;;;;;5072159;28;20114;-54
2023/03/26 03:00:55;;;;;;;5.93;4.28;;;11.20;80.40;;;;;;5072763;28;20032;-50
2023/03/26 03:03:25;;;;;;;7.57;4.95;;;11.10;80.50;;;;;;5075164;28;20856;-51
2023/03/26 03:05:52;;;;;;;7.10;4.95;;;11.10;80.70;;;;;;5072397;28;20066;-64
2023/03/26 03:08:19;;;;;;;6.50;4.75;;;11.10;80.80;;;;;;5072001;28;20094;-66
2023/03/26 03:10:58;;;;;;;6.50;4.85;;;11.10;81.00;;;;;;5073100;28;20143;-51
2023/03/26 03:13:24;;;;;;;6.63;5.05;;;11.20;81.10;;;;;;5071765;28;20103;-49
2023/03/26 03:15:50;;;;;;;6.90;4.75;;;11.20;81.10;;;;;;5072705;28;20519;-59
2023/03/26 03:18:15;;;;;;;6.47;4.50;;;11.20;81.10;;;;;;5072001;28;20744;-59
2023/03/26 03:20:41;;;;;;;7.68;5.32;;;11.20;81.10;;;;;;5064897;28;20039;-59
2023/03/26 03:23:07;;;;;;;6.95;4.50;;;11.20;81.40;;;;;;5074697;28;20052;-60
2023/03/26 03:25:32;;;;;;;6.78;5.00;;;11.20;81.40;;;;;;5072980;28;20053;-59
2023/03/26 03:27:58;;;;;;;5.65;4.78;;;11.20;81.40;;;;;;5071302;28;20082;-59
2023/03/26 03:30:24;;;;;;;6.68;4.85;;;11.20;81.40;;;;;;5070765;28;20462;-59
2023/03/26 03:32:50;;;;;;;7.13;4.57;;;11.20;81.40;;;;;;5070208;28;20052;-59
2023/03/26 03:35:15;;;;;;;6.70;5.00;;;11.20;81.60;;;;;;5070365;28;20060;-59
2023/03/26 03:37:41;;;;;;;6.07;4.63;;;11.20;81.60;;;;;;5070882;28;20111;-60
2023/03/26 03:40:09;;;;;;;5.93;4.80;;;11.30;81.60;;;;;;5070152;28;20032;-59
2023/03/26 03:42:35;;;;;;;6.13;4.88;;;11.30;81.60;;;;;;5071410;28;20025;-59
2023/03/26 03:45:05;;;;;;;5.57;4.43;;;11.30;81.50;;;;;;5071535;28;20024;-59
2023/03/26 03:47:31;;;;;;;7.47;5.05;;;11.20;81.50;;;;;;5075801;28;20109;-59
2023/03/26 03:49:58;;;;;;;5.90;4.80;;;11.20;81.70;;;;;;5072087;28;20090;-59
2023/03/26 03:52:25;;;;;;;6.72;5.28;;;11.30;81.80;;;;;;5058650;28;20041;-59
2023/03/26 03:54:51;;;;;;;7.78;5.22;;;11.30;81.90;;;;;;5074260;28;20032;-59
2023/03/26 03:57:17;;;;;;;5.55;4.47;;;11.30;81.90;;;;;;5072403;28;20032;-59
2023/03/26 03:59:43;;;;;;;6.30;4.78;;;11.30;81.90;;;;;;5071980;28;20406;-59
2023/03/26 04:02:09;;;;;;;7.60;4.70;;;11.30;81.90;;;;;;5071498;28;20032;-59
2023/03/26 04:04:36;;;;;;;6.00;4.07;;;11.30;82.10;;;;;;5078628;28;20134;-59
2023/03/26 04:07:04;;;;;;;6.93;4.90;;;11.30;82.20;;;;;;5071411;28;20029;-54
2023/03/26 04:09:30;;;;;;;5.80;4.57;;;11.30;82.20;;;;;;5071629;28;20562;-53
2023/03/26 04:11:55;;;;;;;6.40;5.35;;;11.30;82.20;;;;;;5071608;28;20036;-61
2023/03/26 04:14:21;;;;;;;6.65;4.90;;;11.30;82.30;;;;;;5071218;28;20078;-60
2023/03/26 04:16:50;;;;;;;7.47;5.22;;;11.30;82.20;;;;;;5070703;28;20028;-59
2023/03/26 04:19:15;;;;;;;6.30;4.70;;;11.40;82.20;;;;;;5071769;28;20024;-59
2023/03/26 04:21:41;;;;;;;6.35;5.25;;;11.40;82.30;;;;;;5070916;28;20112;-59
2023/03/26 04:24:08;;;;;;;6.47;4.88;;;11.40;82.40;;;;;;5077123;28;20060;-59
2023/03/26 04:26:34;;;;;;;6.40;4.95;;;11.40;82.50;;;;;;5071259;28;20028;-59
2023/03/26 04:29:04;;;;;;;6.68;5.00;;;11.40;82.50;;;;;;5071327;28;20036;-59
2023/03/26 04:31:30;;;;;;;7.93;5.78;;;11.40;82.60;;;;;;5071127;28;20037;-59
2023/03/26 04:34:04;;;;;;;7.40;5.50;;;11.40;82.60;;;;;;5071072;28;20029;-59
2023/03/26 04:36:32;;;;;;;7.35;5.72;;;11.50;82.60;;;;;;5070501;28;20362;-65
2023/03/26 04:39:05;;;;;;;7.10;5.43;;;11.50;82.80;;;;;;5071029;28;20017;-64
2023/03/26 04:41:31;;;;;;;8.48;6.22;;;11.50;82.80;;;;;;5071423;28;20032;-64
2023/03/26 04:44:00;;;;;;;7.65;5.88;;;11.50;82.90;;;;;;5071493;28;20028;-62
2023/03/26 04:46:26;;;;;;;8.63;5.45;;;11.50;83.20;;;;;;5076793;28;20128;-56
2023/03/26 04:48:53;;;;;;;8.38;6.38;;;11.50;83.30;;;;;;5071316;28;20116;-54
2023/03/26 04:51:23;;;;;;;6.85;5.57;;;11.60;83.10;;;;;;5072098;28;20048;-53
2023/03/26 04:53:59;;;;;;;6.88;5.00;;;11.60;83.20;;;;;;5075341;28;20063;-54
2023/03/26 04:56:34;;;;;;;7.22;5.75;;;11.60;83.00;;;;;;5077444;28;20043;-59
2023/03/26 04:59:01;;;;;;;6.88;6.18;;;11.70;83.20;;;;;;5074908;28;20024;-59
2023/03/26 05:01:29;;;;;;;7.50;5.93;;;11.70;83.30;;;;;;5074517;28;20028;-65
2023/03/26 05:03:57;;;;;;;7.05;5.65;;;11.70;83.30;;;;;;5076628;28;20027;-65
2023/03/26 05:06:26;;;;;;;8.07;5.70;;;11.70;83.30;;;;;;5074425;28;20104;-51
2023/03/26 05:08:52;;;;;;;7.68;6.00;;;11.70;83.30;;;;;;5066251;28;20039;-53
2023/03/26 05:11:18;;;;;;;7.05;5.63;;;11.70;83.30;;;;;;5074507;28;20068;-65
2023/03/26 05:13:45;;;;;;;7.68;6.20;;;11.70;83.40;;;;;;5075033;28;20443;-65
2023/03/26 05:16:12;;;;;;;6.63;5.40;;;11.80;83.80;;;;;;5074127;28;20112;-59
2023/03/26 05:18:38;;;;;;;9.10;6.95;;;11.80;83.90;;;;;;5074406;28;20447;-59
2023/03/26 05:21:04;;;;;;;8.63;6.30;;;11.80;84.00;;;;;;5074322;28;20499;-54
2023/03/26 05:23:30;;;;;;;8.57;6.05;;;11.90;84.20;;;;;;5080188;28;20075;-53
2023/03/26 05:25:55;;;;;;;9.88;6.40;;;11.90;84.20;;;;;;5074071;28;20082;-66
2023/03/26 05:28:23;;;;;;;9.88;6.93;;;12.00;84.00;;;;;;5074238;28;20036;-65
2023/03/26 05:30:51;;;;;;;10.25;7.13;;;12.10;83.70;;;;;;5074158;28;20056;-61
2023/03/26 05:33:18;;;;;;;9.82;6.93;;;12.10;83.30;;;;;;5073921;28;20167;-60
2023/03/26 05:35:44;;;;;;;8.68;6.55;;;12.20;83.10;;;;;;5074255;28;20035;-60
2023/03/26 05:38:10;;;;;;;10.27;6.93;;;12.20;83.00;;;;;;5073414;28;20036;-60
2023/03/26 05:40:36;;;;;;;9.43;7.07;;;12.30;82.90;;;;;;5074216;28;20032;-60
2023/03/26 05:43:02;;;;;;;8.18;6.78;;;12.30;82.80;;;;;;5074261;28;20103;-60
2023/03/26 05:45:28;;;;;;;9.27;7.43;;;12.30;82.70;;;;;;5073691;28;20021;-59
2023/03/26 05:47:55;;;;;;;12.25;7.93;;;12.30;82.70;;;;;;5082468;28;20043;-57
2023/03/26 05:50:21;;;;;;;10.02;7.32;;;12.30;82.60;;;;;;5054704;28;20032;-59
2023/03/26 05:52:46;;;;;;;8.60;6.97;;;12.40;82.70;;;;;;5075227;28;20028;-56
2023/03/26 05:55:12;;;;;;;8.75;7.20;;;12.40;82.90;;;;;;5076420;28;20085;-56
2023/03/26 05:57:38;;;;;;;10.27;7.80;;;12.40;83.00;;;;;;5073384;28;20090;-60
2023/03/26 06:00:07;;;;;;;9.10;7.10;;;12.50;83.10;;;;;;5073404;28;20028;-59
2023/03/26 06:02:33;;;;;;;9.80;7.35;;;12.50;82.90;;;;;;5076943;28;20485;-55
2023/03/26 06:05:00;;;;;;;10.40;7.97;;;12.60;82.90;;;;;;5076886;28;20029;-54
2023/03/26 06:07:27;;;;;;;12.50;8.07;;;12.60;82.80;;;;;;5073496;28;20031;-63
2023/03/26 06:09:52;;;;;;;12.02;8.45;;;12.60;82.60;;;;;;5047216;28;20037;-64
2023/03/26 06:12:18;;;;;;;9.80;7.70;;;12.60;82.60;;;;;;5073015;28;20032;-65
2023/03/26 06:14:44;;;;;;;11.38;7.68;;;12.60;82.70;;;;;;5073868;28;20817;-65
2023/03/26 06:17:10;;;;;;;12.45;8.60;;;12.60;82.70;;;;;;5055315;28;20028;-51
2023/03/26 06:19:36;;;;;;;9.57;7.22;;;12.70;82.80;;;;;;5072540;28;20035;-53
2023/03/26 06:22:02;;;;;;;7.97;6.57;;;12.70;82.90;;;;;;5073696;28;20020;-59
2023/03/26 06:24:28;;;;;;;8.95;7.03;;;12.60;82.90;;;;;;5072594;28;20045;-59
2023/03/26 06:26:54;;;;;;;10.20;8.05;;;12.60;83.30;;;;;;5073349;28;20043;-60
2023/03/26 06:29:20;;;;;;;8.35;6.45;;;12.60;83.70;;;;;;5072093;28;20468;-59
2023/03/26 06:31:45;;;;;;;7.65;6.10;;;12.60;84.10;;;;;;5073428;28;20376;-61
2023/03/26 06:34:11;;;;;;;7.97;6.97;;;12.60;84.40;;;;;;5072622;28;20047;-61
2023/03/26 06:36:37;;;;;;;8.18;6.32;;;12.60;84.60;;;;;;5071710;28;20364;-61
2023/03/26 06:39:03;;;;;;;8.80;6.88;;;12.60;84.70;;;;;;5071332;28;20037;-61
2023/03/26 06:41:29;;;;;;;7.25;6.05;;;12.60;84.90;;;;;;5070935;28;20029;-61
2023/03/26 06:43:54;;;;;;;8.55;6.53;;;12.60;85.00;;;;;;5071390;28;20028;-61
2023/03/26 06:46:22;;;;;;;8.82;6.43;;;12.70;85.10;;;;;;5076164;28;20048;-56
2023/03/26 06:48:47;;;;;;;9.07;6.97;;;12.70;85.10;;;;;;5074849;28;20028;-57
2023/03/26 06:51:13;;;;;;;8.00;6.30;;;12.80;85.20;;;;;;5072583;28;20098;-63
2023/03/26 06:53:39;;;;;;;8.15;6.18;;;12.80;85.30;;;;;;5072856;28;20025;-64
2023/03/26 06:56:05;;;;;;;8.43;6.32;;;12.80;85.30;;;;;;5075934;28;20488;-60
2023/03/26 06:58:31;;;;;;;9.02;6.90;;;12.90;85.20;;;;;;5068771;28;20029;-60
2023/03/26 07:00:56;;;;;;;9.23;7.43;;;13.00;85.20;;;;;;5072678;28;20036;-60
2023/03/26 07:03:22;;;;;;;8.02;6.78;;;13.00;85.20;;;;;;5079803;28;20086;-59
2023/03/26 07:05:48;;;;;;;8.10;6.22;;;13.00;85.10;;;;;;5072070;28;20029;-61
2023/03/26 07:08:14;;;;;;;9.02;7.15;;;13.00;85.00;;;;;;5071576;28;20055;-59
2023/03/26 07:10:41;;;;;;;8.02;6.85;;;13.10;85.00;;;;;;5072266;28;20028;-60
2023/03/26 07:13:06;;;;;;;8.90;6.95;;;13.20;85.00;;;;;;5071733;28;20068;-60
2023/03/26 07:15:32;;;;;;;10.63;7.65;;;13.20;85.00;;;;;;5070911;28;20060;-60
2023/03/26 07:17:58;;;;;;;8.90;6.53;;;13.30;84.60;;;;;;5071610;28;20032;-60
2023/03/26 07:20:24;;;;;;;8.05;6.15;;;13.40;84.30;;;;;;5071935;28;20047;-60
2023/03/26 07:22:50;;;;;;;10.25;6.90;;;13.40;84.30;;;;;;5073320;28;20544;-60
2023/03/26 07:25:17;;;;;;;9.55;6.65;;;13.40;84.70;;;;;;5075496;28;20033;-60
2023/03/26 07:27:57;;;;;;;8.32;6.38;;;13.50;84.20;;;;;;5072061;28;20039;-60
2023/03/26 07:30:37;;;;;;;7.97;6.38;;;13.50;84.00;;;;;;5071708;28;20115;-60
2023/03/26 07:33:15;;;;;;;9.47;6.83;;;13.50;84.10;;;;;;5069783;28;20077;-51
2023/03/26 07:35:49;;;;;;;7.63;6.20;;;13.50;84.10;;;;;;5074395;28;20477;-60
2023/03/26 07:38:40;;;;;;;8.82;6.53;;;13.60;84.10;;;;;;5071780;28;20111;-60
2023/03/26 07:41:34;;;;;;;8.90;6.65;;;13.70;83.80;;;;;;5059462;28;20052;-60
2023/03/26 07:44:11;;;;;;;6.90;5.50;;;13.80;83.50;;;;;;5072196;28;20025;-59
2023/03/26 07:46:38;;;;;;;7.78;5.53;;;13.80;83.20;;;;;;5078845;28;20111;-64
2023/03/26 07:49:04;;;;;;;6.88;5.57;;;13.90;82.80;;;;;;5074136;28;20024;-64
2023/03/26 07:51:30;;;;;;;7.38;5.82;;;13.90;82.80;;;;;;5070921;28;20374;-52
2023/03/26 07:53:59;;;;;;;8.25;5.90;;;13.90;82.80;;;;;;5072706;28;20032;-53
2023/03/26 07:56:45;;;;;;;7.13;5.60;;;13.90;82.70;;;;;;5075633;28;20033;-59
2023/03/26 07:59:52;;;;;;;6.50;5.05;;;14.00;82.40;;;;;;5071408;28;20028;-60
2023/03/26 08:02:30;;;;;;;6.13;4.93;;;14.10;82.40;;;;;;5031099;28;20513;-60
2023/03/26 08:05:18;;;;;;;6.32;5.32;;;14.20;82.40;;;;;;5070180;28;20181;-60
2023/03/26 08:08:05;;;;;;;7.03;5.22;;;14.20;82.10;;;;;;5070697;28;20040;-61
2023/03/26 08:10:41;;;;;;;6.75;4.88;;;14.30;82.20;;;;;;5062066;28;20391;-62
2023/03/26 08:13:29;;;;;;;5.45;4.22;;;14.40;82.10;;;;;;5052954;28;20415;-62
2023/03/26 08:16:10;;;;;;;5.13;4.28;;;14.60;81.50;;;;;;5071277;28;20037;-63
2023/03/26 08:18:43;;;;;;;4.22;3.35;;;14.70;80.80;;;;;;5070982;28;20031;-60
2023/03/26 08:21:20;;;;;;;3.65;2.95;;;14.70;80.20;;;;;;5071421;28;20532;-63
2023/03/26 08:24:12;;;;;;;4.15;2.92;;;14.60;79.60;;;;;;5071470;28;20049;-62
2023/03/26 08:26:57;;;;;;;3.97;2.80;;;14.60;79.40;;;;;;5072507;28;20041;-60
2023/03/26 08:29:29;;;;;;;3.28;2.75;;;14.60;79.20;;;;;;5075096;28;20475;-60
2023/03/26 08:31:56;;;;;;;3.22;2.88;;;14.50;79.10;;;;;;5066351;28;20024;-59
2023/03/26 08:34:22;;;;;;;3.38;2.80;;;14.50;79.20;;;;;;5073398;28;20153;-59
2023/03/26 08:36:48;;;;;;;3.38;2.70;;;14.60;79.40;;;;;;5074845;28;20048;-51
2023/03/26 08:39:13;;;;;;;3.53;2.80;;;14.60;79.20;;;;;;5075097;28;20467;-52
2023/03/26 08:41:42;;;;;;;2.78;2.42;;;14.60;79.10;;;;;;5075321;28;20694;-51
2023/03/26 08:44:29;;;;;;;2.90;2.50;;;14.70;78.80;;;;;;5075094;28;20471;-51
2023/03/26 08:47:10;;;;;;;2.45;2.25;;;14.70;78.40;;;;;;5079647;28;20119;-57
2023/03/26 08:49:56;;;;;;;2.30;2.10;;;14.80;77.90;;;;;;5064297;28;20094;-54
2023/03/26 08:52:59;;;;;;;2.80;2.22;;;14.80;77.70;;;;;;5074342;28;20112;-52
2023/03/26 08:55:31;;;;;;;2.45;2.20;;;14.80;76.80;;;;;;5074780;28;20029;-55
2023/03/26 08:58:07;;;;;;;2.25;2.05;;;14.70;76.90;;;;;;5074833;28;20463;-63
2023/03/26 09:00:51;;;;;;;2.47;2.28;;;14.60;76.70;;;;;;5061414;28;20021;-62
2023/03/26 09:03:20;;;;;;;2.13;2.03;;;14.60;76.40;;;;;;5076323;28;20033;-59
2023/03/26 09:06:06;;;;;;;1.80;1.70;;;14.50;76.50;;;;;;5074153;28;20099;-59
2023/03/26 09:09:09;;;;;;;1.83;1.73;;;14.50;76.70;;;;;;5065526;28;20447;-59
2023/03/26 09:11:56;;;;;;;1.42;1.38;;;14.50;76.30;;;;;;5074856;28;20028;-60
2023/03/26 09:14:31;;;;;;;1.40;1.40;;;14.40;76.00;;;;;;5073937;28;20040;-60
2023/03/26 09:17:21;;;;;;;1.60;1.50;;;14.40;76.20;;;;;;5074341;28;20111;-63
2023/03/26 09:20:11;;;;;;;1.63;1.55;;;14.40;76.40;;;;;;5074406;28;20465;-64
2023/03/26 09:22:59;;;;;;;1.30;1.30;;;14.40;75.80;;;;;;5071157;28;20029;-59
2023/03/26 09:26:13;;;;;;;1.27;1.23;;;14.40;75.50;;;;;;5076076;28;20078;-60
2023/03/26 09:28:56;;;;;;;2.65;2.00;;;14.40;75.10;;;;;;5050999;28;20048;-59
2023/03/26 09:31:45;;;;;;;1.90;1.80;;;14.40;75.30;;;;;;5073771;28;20078;-63
2023/03/26 09:34:34;;;;;;;1.52;1.48;;;14.50;75.50;;;;;;5073688;28;20102;-63
2023/03/26 09:37:17;;;;;;;2.08;1.88;;;14.50;75.30;;;;;;5073836;28;20020;-63
2023/03/26 09:39:53;;;;;;;1.63;1.60;;;14.60;75.30;;;;;;5061874;28;20397;-63
2023/03/26 09:42:28;;;;;;;1.63;1.52;;;14.60;75.20;;;;;;5073326;28;20064;-63
2023/03/26 09:45:07;;;;;;;1.63;1.52;;;14.70;75.00;;;;;;5074338;28;20036;-63
2023/03/26 09:48:07;;;;;;;1.50;1.50;;;14.70;74.60;;;;;;5081534;28;20028;-63
2023/03/26 09:50:56;;;;;;;1.70;1.60;;;14.70;74.40;;;;;;5073624;28;20453;-64
2023/03/26 09:53:40;;;;;;;2.15;2.05;;;14.80;74.30;;;;;;5065975;28;20035;-61
2023/03/26 09:56:42;;;;;;;1.88;1.77;;;14.70;74.30;;;;;;5070078;28;20045;-62
2023/03/26 09:59:17;;;;;;;1.50;1.50;;;14.80;74.20;;;;;;5068179;28;20029;-59
2023/03/26 10:01:56;;;;;;;1.75;1.67;;;14.80;74.20;;;;;;5071158;28;20043;-62
2023/03/26 10:04:32;;;;;;;2.08;1.80;;;14.80;73.90;;;;;;5071932;28;20029;-61
2023/03/26 10:07:24;;;;;;;1.98;1.73;;;14.90;73.90;;;;;;5071481;28;20519;-60
2023/03/26 10:10:05;;;;;;;1.77;1.67;;;14.90;73.70;;;;;;5071488;28;20033;-60
2023/03/26 10:12:41;;;;;;;1.70;1.60;;;14.90;73.60;;;;;;5071179;28;20442;-59
2023/03/26 10:15:39;;;;;;;2.00;1.90;;;14.90;73.50;;;;;;5072353;28;20442;-60
2023/03/26 10:18:17;;;;;;;1.85;1.75;;;15.00;73.40;;;;;;5069829;28;20063;-60
2023/03/26 10:20:46;;;;;;;1.73;1.63;;;15.00;73.50;;;;;;5072401;28;20025;-60
2023/03/26 10:23:39;;;;;;;2.00;1.80;;;15.00;73.20;;;;;;5071750;28;20056;-60
2023/03/26 10:26:26;;;;;;;1.33;1.33;;;15.10;73.00;;;;;;5070750;28;20044;-59
2023/03/26 10:29:28;;;;;;;1.85;1.75;;;15.10;72.90;;;;;;5071868;28;20132;-60
2023/03/26 10:32:15;;;;;;;1.35;1.35;;;15.10;72.60;;;;;;5061620;28;20056;-60
2023/03/26 10:35:02;;;;;;;1.55;1.45;;;15.10;72.50;;;;;;5069866;28;20020;-59
2023/03/26 10:37:53;;;;;;;1.85;1.70;;;15.10;72.60;;;;;;5067472;28;20032;-62
2023/03/26 10:40:42;;;;;;;2.20;1.90;;;15.10;72.40;;;;;;5072032;28;20032;-62
2023/03/26 10:43:26;;;;;;;2.40;2.20;;;15.20;72.10;;;;;;5064433;28;20110;-62
2023/03/26 10:46:35;;;;;;;2.15;2.00;;;15.20;72.10;;;;;;5072775;28;20017;-61
2023/03/26 10:49:02;;;;;;;1.95;1.85;;;15.20;71.60;;;;;;5074080;28;20032;-61
2023/03/26 10:52:09;;;;;;;1.90;1.80;;;15.30;71.40;;;;;;5072780;28;20054;-61
2023/03/26 10:54:56;;;;;;;2.53;2.17;;;15.40;70.70;;;;;;5050915;28;20039;-61
2023/03/26 10:57:42;;;;;;;1.80;1.70;;;15.40;70.50;;;;;;5070512;28;20359;-62
2023/03/26 11:00:23;;;;;;;2.03;1.92;;;15.50;70.40;;;;;;5071058;28;20044;-62
2023/03/26 11:03:07;;;;;;;1.85;1.75;;;15.60;70.10;;;;;;5077698;28;20023;-63
2023/03/26 11:05:45;;;;;;;2.22;2.03;;;15.60;69.70;;;;;;5070163;28;20032;-61
2023/03/26 11:08:34;;;;;;;2.17;2.08;;;15.60;69.40;;;;;;5071203;28;20032;-61
2023/03/26 11:11:04;;;;;;;2.03;1.88;;;15.60;69.40;;;;;;5069624;28;20514;-62
2023/03/26 11:13:47;;;;;;;2.97;2.08;;;15.60;69.20;;;;;;5068909;28;20024;-62
2023/03/26 11:16:52;;;;;;;2.42;2.33;;;15.60;69.00;;;;;;5070656;28;20501;-53
2023/03/26 11:19:17;;;;;;;2.03;1.88;;;15.60;68.60;;;;;;5065695;28;20491;-57
2023/03/26 11:22:12;;;;;;;2.60;2.10;;;15.60;68.80;;;;;;5070652;28;20020;-51
2023/03/26 11:25:01;;;;;;;2.55;2.35;;;15.60;68.70;;;;;;5072707;28;20075;-51
2023/03/26 11:27:38;;;;;;;2.92;2.65;;;15.60;68.70;;;;;;5036463;28;20052;-62
2023/03/26 11:30:16;;;;;;;2.30;2.10;;;15.60;68.70;;;;;;5070989;28;20110;-63
2023/03/26 11:32:47;;;;;;;2.08;1.98;;;15.60;68.30;;;;;;5067102;28;20137;-60
2023/03/26 11:35:33;;;;;;;2.20;2.10;;;15.60;68.00;;;;;;5068441;28;20116;-60
2023/03/26 11:38:05;;;;;;;2.63;2.20;;;15.70;68.10;;;;;;5059148;28;20592;-53
2023/03/26 11:40:49;;;;;;;2.70;2.50;;;15.70;68.00;;;;;;5071385;28;20025;-54
2023/03/26 11:43:17;;;;;;;2.78;2.47;;;15.60;67.80;;;;;;5072056;28;20020;-55
2023/03/26 11:45:46;;;;;;;2.08;1.98;;;15.60;67.90;;;;;;5071890;28;20073;-61
2023/03/26 11:48:23;;;;;;;2.70;2.20;;;15.60;67.80;;;;;;5068630;28;20062;-61
2023/03/26 11:50:56;;;;;;;2.22;2.03;;;15.60;67.80;;;;;;5070776;28;20035;-53
2023/03/26 11:53:28;;;;;;;2.85;2.10;;;15.60;67.70;;;;;;5070318;28;20033;-56
2023/03/26 11:56:05;;;;;;;1.90;1.80;;;15.60;67.60;;;;;;5072544;28;20216;-59
2023/03/26 11:58:47;;;;;;;2.13;2.03;;;15.60;67.60;;;;;;5069651;28;20078;-59
2023/03/26 12:01:31;;;;;;;2.38;2.28;;;15.60;67.60;;;;;;5069022;28;20028;-61
2023/03/26 12:04:18;;;;;;;2.17;2.08;;;15.60;67.50;;;;;;5068302;28;20112;-61
2023/03/26 12:07:14;;;;;;;2.50;2.30;;;15.60;67.50;;;;;;5070124;28;20037;-62
2023/03/26 12:09:49;;;;;;;2.30;2.10;;;15.70;67.40;;;;;;5025287;28;20033;-61
2023/03/26 12:12:16;;;;;;;2.13;2.03;;;15.80;67.50;;;;;;5071163;28;20099;-61
2023/03/26 12:14:43;;;;;;;2.90;2.42;;;15.80;67.30;;;;;;5071369;28;20082;-61
2023/03/26 12:17:32;;;;;;;2.30;2.10;;;15.80;67.10;;;;;;5071205;28;20033;-61
2023/03/26 12:20:00;;;;;;;2.03;1.90;;;15.90;66.80;;;;;;5070498;28;20025;-62
2023/03/26 12:22:31;;;;;;;2.13;1.92;;;16.00;66.70;;;;;;5071066;28;20116;-61
2023/03/26 12:25:18;;;;;;;2.88;2.13;;;16.00;66.30;;;;;;5072542;28;20375;-61
2023/03/26 12:27:51;;;;;;;2.50;2.30;;;16.10;66.10;;;;;;5070602;28;20040;-60
2023/03/26 12:30:27;;;;;;;2.05;1.95;;;16.10;66.20;;;;;;5070559;28;20100;-59
2023/03/26 12:33:02;;;;;;;2.60;2.40;;;16.20;66.00;;;;;;5052645;28;20482;-59
2023/03/26 12:35:30;;;;;;;2.20;2.00;;;16.20;65.70;;;;;;5063651;28;20033;-59
2023/03/26 12:38:36;;;;;;;2.10;2.00;;;16.20;65.50;;;;;;5070657;28;20032;-58
2023/03/26 12:41:08;;;;;;;1.95;1.85;;;16.30;65.30;;;;;;5052848;28;20031;-53
2023/03/26 12:43:40;;;;;;;;;;;16.30;65.20;;;;;;5071555;28;20406;-53
2023/03/26 12:46:26;;;;;;;2.30;2.10;;;16.30;65.10;;;;;;5061589;28;19912;-59
2023/03/26 12:48:53;;;;;;;1.52;1.52;;;16.40;65.10;;;;;;5077340;28;20043;-60
2023/03/26 12:51:51;;;;;;;1.80;1.70;;;16.40;64.90;;;;;;5079555;28;20028;-62
2023/03/26 12:54:29;;;;;;;1.80;1.70;;;16.40;64.80;;;;;;5066831;28;20031;-61
2023/03/26 12:57:24;;;;;;;1.80;1.70;;;16.40;64.50;;;;;;5077618;28;20025;-62
2023/03/26 13:00:20;;;;;;;2.15;1.75;;;16.50;64.40;;;;;;5046045;28;20131;-62
2023/03/26 13:03:13;;;;;;;2.40;2.20;;;16.50;64.40;;;;;;5054624;28;20031;-62
2023/03/26 13:06:00;;;;;;;2.40;2.20;;;16.50;64.40;;;;;;5061546;28;20024;-61
2023/03/26 13:08:47;;;;;;;2.72;2.53;;;16.50;64.30;;;;;;5078547;28;20456;-59
2023/03/26 13:11:32;;;;;;;2.70;2.33;;;16.40;64.40;;;;;;5073670;28;20086;-59
2023/03/26 13:14:00;;;;;;;2.28;2.13;;;16.40;64.30;;;;;;5080165;28;20024;-61
2023/03/26 13:16:32;;;;;;;2.80;2.60;;;16.30;63.80;;;;;;5080802;28;20441;-51
2023/03/26 13:19:03;;;;;;;;;;;16.20;63.70;;;;;;5078872;28;20036;-55